Saturday, September 22, 2018, 11:04 PM EDT
Back to Local

KFMH, Otis Air National Guard Base

Location: Mashpee, MA, United States Lat: 41.65
Local Time: 11:04 PM EDT ( 3:04 GMT) Lon: -70.517
Time Zone: US/Eastern Elev: 131 ft

Show me the last for .
Show Decoded

2018-09-22 22:35 METAR KFMH 230235Z AUTO 05004KT 10SM CLR 14/11 A3021 RMK AO2 =
2018-09-22 22:15 METAR KFMH 230215Z AUTO 00000KT 10SM CLR 14/12 A3021 RMK AO2 =
2018-09-22 21:55 METAR KFMH 230155Z AUTO 00000KT 10SM CLR 14/11 A3022 RMK AO2 =
2018-09-22 21:35 METAR KFMH 230135Z AUTO 03003KT 10SM CLR 15/11 A3021 RMK AO2 =
2018-09-22 21:15 METAR KFMH 230115Z AUTO 05004KT 10SM CLR 15/11 A3021 RMK AO2 =
2018-09-22 20:55 METAR KFMH 230055Z AUTO 00000KT 10SM CLR 15/12 A3021 RMK AO2 =
2018-09-22 20:35 METAR KFMH 230035Z AUTO 04005KT 10SM CLR 15/12 A3020 RMK AO2 =
2018-09-22 20:15 METAR KFMH 230015Z AUTO 07004KT 10SM CLR 15/12 A3020 RMK AO2 =
2018-09-22 19:55 METAR KFMH 222355Z AUTO 03005KT 10SM CLR 16/12 A3019 RMK AO2 =
2018-09-22 19:35 METAR KFMH 222335Z AUTO 03005KT 10SM CLR 16/12 A3018 RMK AO2 =
2018-09-22 19:15 METAR KFMH 222315Z AUTO 05006KT 10SM CLR 16/12 A3018 RMK AO2 =
2018-09-22 18:55 METAR KFMH 222255Z AUTO 04006KT 10SM CLR 16/12 A3017 RMK AO2 =
2018-09-22 18:35 METAR KFMH 222235Z AUTO 04007KT 10SM CLR 17/12 A3017 RMK AO2 =
2018-09-22 18:15 METAR KFMH 222215Z AUTO 03005KT 10SM CLR 17/12 A3015 RMK AO2 =
2018-09-22 17:55 METAR KFMH 222155Z AUTO 02004KT 10SM CLR 18/12 A3015 RMK AO2 =
2018-09-22 17:35 METAR KFMH 222135Z AUTO 02005KT 10SM CLR 18/11 A3014 RMK AO2 =
2018-09-22 17:15 METAR KFMH 222115Z AUTO 03005KT 10SM CLR 19/11 A3014 RMK AO2 =
2018-09-22 16:55 METAR KFMH 222055Z AUTO 36006G11KT 10SM CLR 19/11 A3013 RMK AO2 =
2018-09-22 16:35 METAR KFMH 222035Z AUTO 03008KT 10SM CLR 19/11 A3013 RMK AO2 =
2018-09-22 16:15 METAR KFMH 222015Z AUTO 01010KT 10SM CLR 19/10 A3013 RMK AO2 =
2018-09-22 15:55 METAR KFMH 221955Z AUTO 02007G16KT 10SM CLR 20/10 A3012 RMK AO2 =
2018-09-22 15:35 METAR KFMH 221935Z AUTO 02011G16KT 10SM CLR 20/10 A3012 RMK AO2 =
2018-09-22 15:15 METAR KFMH 221915Z AUTO 01010G16KT 10SM CLR 20/09 A3011 RMK AO2 =
2018-09-22 14:55 METAR KFMH 221855Z AUTO 01012G18KT 10SM CLR 20/09 A3011 RMK AO2 =
2018-09-22 14:35 METAR KFMH 221835Z AUTO 01009G18KT 10SM CLR 20/09 A3010 RMK AO2 =
2018-09-22 14:15 METAR KFMH 221815Z AUTO 03012G19KT 10SM CLR 21/11 A3010 RMK AO2 =
2018-09-22 13:55 METAR KFMH 221755Z AUTO 02013G18KT 10SM CLR 21/11 A3010 RMK AO2 =
2018-09-22 13:35 METAR KFMH 221735Z AUTO 02013G18KT 10SM CLR 21/12 A3009 RMK AO2 =
2018-09-22 13:15 METAR KFMH 221715Z AUTO 03013KT 10SM CLR 21/12 A3009 RMK AO2 =
2018-09-22 12:55 METAR KFMH 221655Z AUTO 03013KT 10SM FEW039 21/12 A3008 RMK AO2 =
2018-09-22 12:35 METAR KFMH 221635Z AUTO 02010KT 10SM FEW039 21/13 A3008 RMK AO2 =
2018-09-22 12:15 METAR KFMH 221615Z AUTO 33009G16KT 10SM CLR 22/12 A3008 RMK AO2 =
2018-09-22 11:55 METAR KFMH 221555Z AUTO 33013KT 10SM CLR 22/12 A3007 RMK AO2 =
2018-09-22 11:35 METAR KFMH 221535Z AUTO 33012G18KT 10SM CLR 22/12 A3006 RMK AO2 =
2018-09-22 11:15 METAR KFMH 221515Z AUTO 30011G17KT 10SM CLR 23/13 A3005 RMK AO2 =
2018-09-22 10:55 METAR KFMH 221455Z AUTO 32012G17KT 10SM CLR 23/13 A3005 RMK AO2 =
2018-09-22 10:35 METAR KFMH 221435Z AUTO 31013G20KT 10SM CLR 22/12 A3004 RMK AO2 =
2018-09-22 10:15 METAR KFMH 221415Z AUTO 32010G18KT 10SM CLR 22/12 A3004 RMK AO2 =
2018-09-22 09:55 METAR KFMH 221355Z AUTO 31011G18KT 10SM CLR 22/12 A3003 RMK AO2 =
2018-09-22 09:35 METAR KFMH 221335Z AUTO 32010G16KT 10SM CLR 22/13 A3002 RMK AO2 =
2018-09-22 09:15 METAR KFMH 221315Z AUTO 30017G24KT 10SM CLR 23/15 A3000 RMK AO2 =
2018-09-22 08:55 METAR KFMH 221255Z AUTO 30009G16KT 10SM FEW023 22/18 A2999 RMK AO2 =
2018-09-22 08:35 METAR KFMH 221235Z AUTO 30012G20KT 10SM CLR 22/18 A2998 RMK AO2 =
2018-09-22 08:15 METAR KFMH 221215Z AUTO 28012G19KT 10SM CLR 22/19 A2997 RMK AO2 =
2018-09-22 07:55 METAR KFMH 221155Z AUTO 28014G21KT 10SM SCT019 22/20 A2996 RMK AO2 =
2018-09-22 07:35 METAR KFMH 221135Z AUTO 27011KT 8SM FEW013 SCT020 SCT090 22/20 A2995 RMK AO2 =
2018-09-22 07:15 METAR KFMH 221115Z AUTO 26012G17KT 7SM SCT009 BKN015 BKN021 21/20 A2995 RMK AO2
                 =
2018-09-22 06:55 METAR KFMH 221055Z AUTO 24016G22KT 7SM BKN009 OVC016 21/20 A2993 RMK AO2 =
2018-09-22 06:35 METAR KFMH 221035Z AUTO 24017G23KT 8SM OVC009 21/20 A2992 RMK AO2 =
2018-09-22 06:15 METAR KFMH 221015Z AUTO 23020G29KT 9SM BKN009 OVC013 21/20 A2991 RMK AO2 =
2018-09-22 05:55 METAR KFMH 220955Z AUTO 23020G27KT 9SM OVC010 21/20 A2991 RMK AO2 =
2018-09-22 05:35 METAR KFMH 220935Z AUTO 23022G30KT 10SM OVC012 21/20 A2990 RMK AO2 =
2018-09-22 05:15 METAR KFMH 220915Z AUTO 22021G30KT 10SM BKN014 OVC019 22/19 A2990 RMK AO2 =
2018-09-22 04:55 METAR KFMH 220855Z AUTO 22020G26KT 10SM BKN020 OVC026 22/19 A2990 RMK AO2 =
2018-09-22 04:35 METAR KFMH 220835Z AUTO 23018G29KT 10SM OVC027 22/19 A2991 RMK AO2 =
2018-09-22 04:15 METAR KFMH 220815Z AUTO 22021G30KT 10SM OVC029 22/19 A2990 RMK AO2 =
2018-09-22 03:55 METAR KFMH 220755Z AUTO 22023G28KT 10SM BKN031 21/19 A2991 RMK AO2 =
2018-09-22 03:35 METAR KFMH 220735Z AUTO 22020G31KT 10SM SCT035 21/18 A2991 RMK AO2 =
2018-09-22 03:15 METAR KFMH 220715Z AUTO 22020G30KT 10SM SCT037 21/18 A2992 RMK AO2 =
2018-09-22 02:55 METAR KFMH 220655Z AUTO 22020G34KT 10SM CLR 21/18 A2993 RMK AO2 =
2018-09-22 02:35 METAR KFMH 220635Z AUTO 22020G27KT 10SM FEW018 FEW032 SCT043 21/18 A2993 RMK AO2
                 =
2018-09-22 02:15 METAR KFMH 220615Z AUTO 22021G30KT 10SM FEW018 SCT031 SCT044 21/18 A2995 RMK AO2
                 =
2018-09-22 01:55 METAR KFMH 220555Z AUTO 22021G27KT 10SM CLR 21/18 A2995 RMK AO2 =
2018-09-22 01:35 METAR KFMH 220535Z AUTO 21019G26KT 10SM FEW045 21/18 A2996 RMK AO2 =
2018-09-22 01:15 METAR KFMH 220515Z AUTO 21019G26KT 10SM SCT046 21/18 A2997 RMK AO2 =
2018-09-22 00:55 METAR KFMH 220455Z AUTO 22018G25KT 10SM OVC046 21/18 A2998 RMK AO2 =
2018-09-22 00:35 METAR KFMH 220435Z AUTO 21019G25KT 10SM OVC044 21/18 A2999 RMK AO2 =
2018-09-22 00:15 METAR KFMH 220415Z AUTO 21020KT 10SM OVC043 21/18 A3000 RMK AO2 =
2018-09-21 23:55 METAR KFMH 220355Z AUTO 22017G25KT 10SM OVC044 20/18 A3002 RMK AO2 =
2018-09-21 23:35 METAR KFMH 220335Z AUTO 21016KT 10SM BKN043 OVC050 20/18 A3002 RMK AO2 =
2018-09-21 23:15 METAR KFMH 220315Z AUTO 21016KT 10SM BKN046 20/17 A3003 RMK AO2 =

Support USWX by starting your Amazon purchase here.